createdAt,value
2022-11-28T00:00:08.937Z,99.99
2022-11-28T00:01:08.917Z,99.99
2022-11-28T00:02:09.017Z,98.94
2022-11-28T00:03:08.985Z,98.32
2022-11-28T00:04:09.351Z,98.11
2022-11-28T00:05:08.866Z,97.90
2022-11-28T00:06:08.868Z,97.80
2022-11-28T00:07:08.849Z,97.49
2022-11-28T00:08:09.399Z,97.69
2022-11-28T00:09:08.834Z,98.42
2022-11-28T00:10:08.819Z,98.73
2022-11-28T00:11:08.819Z,98.94
2022-11-28T00:12:08.810Z,98.52
2022-11-28T00:13:08.790Z,98.00
2022-11-28T00:14:08.789Z,97.90
2022-11-28T00:15:08.762Z,97.28
2022-11-28T00:16:08.779Z,96.76
2022-11-28T00:17:08.743Z,96.72
2022-11-28T00:18:08.741Z,96.72
2022-11-28T00:19:08.731Z,97.24
2022-11-28T00:20:08.723Z,97.96
2022-11-28T00:21:09.085Z,98.17
2022-11-28T00:22:08.708Z,97.34
2022-11-28T00:23:08.672Z,97.55
2022-11-28T00:24:08.682Z,97.86
2022-11-28T00:25:08.653Z,98.07
2022-11-28T00:26:08.733Z,98.32
2022-11-28T00:27:08.640Z,98.32
2022-11-28T00:28:08.642Z,98.52
2022-11-28T00:29:08.615Z,98.52
2022-11-28T00:30:09.424Z,98.94
2022-11-28T00:31:09.432Z,99.04
2022-11-28T00:32:08.663Z,98.42
2022-11-28T00:33:08.574Z,98.11
2022-11-28T00:34:08.575Z,98.00
2022-11-28T00:35:09.363Z,98.21
2022-11-28T00:36:08.565Z,97.80
2022-11-28T00:37:08.534Z,98.32
2022-11-28T00:38:08.526Z,98.63
2022-11-28T00:39:08.855Z,98.42
2022-11-28T00:40:08.526Z,98.52
2022-11-28T00:41:08.494Z,99.15
2022-11-28T00:42:08.501Z,99.56
2022-11-28T00:43:08.479Z,99.99
2022-11-28T00:44:08.634Z,99.99
2022-11-28T00:45:08.456Z,99.99
2022-11-28T00:46:08.477Z,99.99
2022-11-28T00:47:08.439Z,99.99
2022-11-28T00:48:08.435Z,99.99
2022-11-28T00:49:08.418Z,99.99
2022-11-28T00:50:08.439Z,99.99
2022-11-28T00:51:08.388Z,99.99
2022-11-28T00:52:08.396Z,99.99
2022-11-28T00:53:08.365Z,99.99
2022-11-28T00:54:08.399Z,99.99
2022-11-28T00:55:08.355Z,99.99
2022-11-28T00:56:08.352Z,99.99
2022-11-28T00:57:08.333Z,99.99
2022-11-28T00:58:08.331Z,99.99
2022-11-28T00:59:08.316Z,99.99
2022-11-28T01:00:08.309Z,99.99
2022-11-28T01:01:08.331Z,99.99
2022-11-28T01:02:08.366Z,99.99
2022-11-28T01:03:08.263Z,99.99
2022-11-28T01:04:08.267Z,99.99
2022-11-28T01:05:08.250Z,99.99
2022-11-28T01:06:08.248Z,99.99
2022-11-28T01:07:08.597Z,99.99
2022-11-28T01:08:08.221Z,99.99
2022-11-28T01:09:08.193Z,99.99
2022-11-28T01:10:08.192Z,99.99
2022-11-28T01:11:08.181Z,99.99
2022-11-28T01:12:08.196Z,99.99
2022-11-28T01:13:08.164Z,99.99
2022-11-28T01:14:08.162Z,99.99
2022-11-28T01:15:08.148Z,99.99
2022-11-28T01:16:08.779Z,99.99
2022-11-28T01:17:08.113Z,99.99
2022-11-28T01:18:08.152Z,99.99
2022-11-28T01:19:08.103Z,99.99
2022-11-28T01:20:08.095Z,99.99
2022-11-28T01:21:08.080Z,99.99
2022-11-28T01:22:08.072Z,99.99
2022-11-28T01:23:08.054Z,99.99
2022-11-28T01:24:08.064Z,99.99
2022-11-28T01:25:08.057Z,99.99
2022-11-28T01:26:08.201Z,99.99
2022-11-28T01:27:08.026Z,99.99
2022-11-28T01:28:07.996Z,99.99
2022-11-28T01:29:08.028Z,99.99
2022-11-28T01:30:08.055Z,99.99
2022-11-28T01:31:08.043Z,99.99
2022-11-28T01:32:07.966Z,99.99
2022-11-28T01:33:07.965Z,99.99
2022-11-28T01:34:07.936Z,99.99
2022-11-28T01:35:08.756Z,99.99
2022-11-28T01:36:07.937Z,99.99
2022-11-28T01:37:07.920Z,99.99
2022-11-28T01:38:07.916Z,99.99
2022-11-28T01:39:07.898Z,99.99
2022-11-28T01:40:07.896Z,99.99
2022-11-28T01:41:07.879Z,99.99
2022-11-28T01:42:07.877Z,99.99
2022-11-28T01:43:07.857Z,99.99
2022-11-28T01:44:08.009Z,99.99
2022-11-28T01:45:07.838Z,99.99
2022-11-28T01:46:07.809Z,99.99
2022-11-28T01:47:07.878Z,99.99
2022-11-28T01:48:07.799Z,99.99
2022-11-28T01:49:08.619Z,99.99
2022-11-28T01:50:08.619Z,99.99
2022-11-28T01:51:07.779Z,99.99
2022-11-28T01:52:07.749Z,99.99
2022-11-28T01:53:08.391Z,99.99
2022-11-28T01:54:07.743Z,99.99
2022-11-28T01:55:07.742Z,99.99
2022-11-28T01:56:07.719Z,99.99
2022-11-28T01:57:08.511Z,99.99
2022-11-28T01:58:07.694Z,99.99
2022-11-28T01:59:07.715Z,99.99
2022-11-28T02:00:07.701Z,99.99
2022-11-28T02:01:07.756Z,99.99
2022-11-28T02:02:08.547Z,99.99
2022-11-28T02:03:07.652Z,99.99
2022-11-28T02:04:07.626Z,99.99
2022-11-28T02:05:07.732Z,99.99
2022-11-28T02:06:07.641Z,99.99
2022-11-28T02:07:08.413Z,99.99
2022-11-28T02:08:07.633Z,99.99
2022-11-28T02:09:07.593Z,99.99
2022-11-28T02:10:07.562Z,99.99
2022-11-28T02:11:07.590Z,99.99
2022-11-28T02:12:07.554Z,99.99
2022-11-28T02:13:07.562Z,99.99
2022-11-28T02:14:07.584Z,99.99
2022-11-28T02:15:07.525Z,99.99
2022-11-28T02:16:07.571Z,99.99
2022-11-28T02:17:07.591Z,99.99
2022-11-28T02:18:07.494Z,99.99
2022-11-28T02:19:07.482Z,99.99
2022-11-28T02:20:07.473Z,99.99
2022-11-28T02:21:07.464Z,99.99
2022-11-28T02:22:07.436Z,99.99
2022-11-28T02:23:07.450Z,99.99
2022-11-28T02:24:07.433Z,99.99
2022-11-28T02:25:07.418Z,99.99
2022-11-28T02:26:07.405Z,99.99
2022-11-28T02:27:07.426Z,99.99
2022-11-28T02:28:07.375Z,99.99
2022-11-28T02:29:07.377Z,99.99
2022-11-28T02:30:07.368Z,99.99
2022-11-28T02:31:07.532Z,99.99
2022-11-28T02:32:07.338Z,99.99
2022-11-28T02:33:07.337Z,99.99
2022-11-28T02:34:07.330Z,99.99
2022-11-28T02:35:07.318Z,99.99
2022-11-28T02:36:07.298Z,99.99
2022-11-28T02:37:07.289Z,99.99
2022-11-28T02:38:07.317Z,99.99
2022-11-28T02:39:07.278Z,99.99
2022-11-28T02:40:07.249Z,99.99
2022-11-28T02:41:07.259Z,99.99
2022-11-28T02:42:07.240Z,99.99
2022-11-28T02:43:07.229Z,99.99
2022-11-28T02:44:07.209Z,99.99
2022-11-28T02:45:07.212Z,99.99
2022-11-28T02:46:07.981Z,99.99
2022-11-28T02:47:07.415Z,99.99
2022-11-28T02:48:07.835Z,99.99
2022-11-28T02:49:07.171Z,99.99
2022-11-28T02:50:07.164Z,99.99
2022-11-28T02:51:07.180Z,99.99
2022-11-28T02:52:07.121Z,99.99
2022-11-28T02:53:07.132Z,99.99
2022-11-28T02:54:07.102Z,99.99
2022-11-28T02:55:07.209Z,99.99
2022-11-28T02:56:07.101Z,99.99
2022-11-28T02:57:07.299Z,99.99
2022-11-28T02:58:07.072Z,99.99
2022-11-28T02:59:07.064Z,99.99
2022-11-28T03:00:07.053Z,99.99
2022-11-28T03:01:07.232Z,99.99
2022-11-28T03:02:07.068Z,99.99
2022-11-28T03:03:07.034Z,99.99
2022-11-28T03:04:07.015Z,99.99
2022-11-28T03:05:07.003Z,99.99
2022-11-28T03:06:06.981Z,99.99
2022-11-28T03:07:06.991Z,99.99
2022-11-28T03:08:06.962Z,99.99
2022-11-28T03:09:07.616Z,99.99
2022-11-28T03:10:06.944Z,99.99
2022-11-28T03:11:06.955Z,99.99
2022-11-28T03:12:06.935Z,99.99
2022-11-28T03:13:06.926Z,99.99
2022-11-28T03:14:06.906Z,99.99
2022-11-28T03:15:07.375Z,99.99
2022-11-28T03:16:06.923Z,99.99
2022-11-28T03:17:06.885Z,99.99
2022-11-28T03:18:06.868Z,99.99
2022-11-28T03:19:06.858Z,99.99
2022-11-28T03:20:06.845Z,99.99
2022-11-28T03:21:06.851Z,99.92
2022-11-28T03:22:06.839Z,99.99
2022-11-28T03:23:06.818Z,99.99
2022-11-28T03:24:06.928Z,99.99
2022-11-28T03:25:06.799Z,99.99
2022-11-28T03:26:06.773Z,99.99
2022-11-28T03:27:06.776Z,99.99
2022-11-28T03:28:06.754Z,99.99
2022-11-28T03:29:07.559Z,99.99
2022-11-28T03:30:06.738Z,99.99
2022-11-28T03:31:06.757Z,99.99
2022-11-28T03:32:06.739Z,99.99
2022-11-28T03:33:06.889Z,99.99
2022-11-28T03:34:06.707Z,99.99
2022-11-28T03:35:06.690Z,99.99
2022-11-28T03:36:06.689Z,99.99
2022-11-28T03:37:06.789Z,99.99
2022-11-28T03:38:06.660Z,99.99
2022-11-28T03:39:06.650Z,99.99
2022-11-28T03:40:06.644Z,99.99
2022-11-28T03:41:06.641Z,99.99
2022-11-28T03:42:06.610Z,99.99
2022-11-28T03:43:06.620Z,99.99
2022-11-28T03:44:06.595Z,99.99
2022-11-28T03:45:06.595Z,99.99
2022-11-28T03:46:06.583Z,99.99
2022-11-28T03:47:06.799Z,99.99
2022-11-28T03:48:06.552Z,99.99
2022-11-28T03:49:06.543Z,99.99
2022-11-28T03:50:06.525Z,99.99
2022-11-28T03:51:06.523Z,99.99
2022-11-28T03:52:06.503Z,99.99
2022-11-28T03:53:06.526Z,99.99
2022-11-28T03:54:06.494Z,99.99
2022-11-28T03:55:06.485Z,99.99
2022-11-28T03:56:06.538Z,99.99
2022-11-28T03:57:06.465Z,99.99
2022-11-28T03:58:06.434Z,99.99
2022-11-28T03:59:06.444Z,99.99
2022-11-28T04:00:06.424Z,99.99
2022-11-28T04:01:06.485Z,99.99
2022-11-28T04:02:06.412Z,99.99
2022-11-28T04:03:06.431Z,99.99
2022-11-28T04:04:06.404Z,99.99
2022-11-28T04:05:06.386Z,99.99
2022-11-28T04:06:06.366Z,99.99
2022-11-28T04:07:06.356Z,99.40
2022-11-28T04:08:06.343Z,98.78
2022-11-28T04:09:10.092Z,98.36
2022-11-28T04:10:07.317Z,98.05
2022-11-28T04:11:06.317Z,98.26
2022-11-28T04:12:06.959Z,98.47
2022-11-28T04:13:06.325Z,98.36
2022-11-28T04:14:06.287Z,98.26
2022-11-28T04:15:06.288Z,98.26
2022-11-28T04:16:06.287Z,98.78
2022-11-28T04:17:06.287Z,98.36
2022-11-28T04:18:06.235Z,97.89
2022-11-28T04:19:06.239Z,97.99
2022-11-28T04:20:06.209Z,98.72
2022-11-28T04:21:06.209Z,98.82
2022-11-28T04:22:06.200Z,98.82
2022-11-28T04:23:06.202Z,98.72
2022-11-28T04:24:06.170Z,98.72
2022-11-28T04:25:06.174Z,98.61
2022-11-28T04:26:06.160Z,97.27
2022-11-28T04:27:06.167Z,96.85
2022-11-28T04:28:06.137Z,96.64
2022-11-28T04:29:06.131Z,96.75
2022-11-28T04:30:06.119Z,96.75
2022-11-28T04:31:06.208Z,96.23
2022-11-28T04:32:06.140Z,96.12
2022-11-28T04:33:06.081Z,96.75
2022-11-28T04:34:06.071Z,97.06
2022-11-28T04:35:06.070Z,97.16
2022-11-28T04:36:06.060Z,97.16
2022-11-28T04:37:09.762Z,97.47
2022-11-28T04:38:06.051Z,97.58
2022-11-28T04:39:06.034Z,97.72
2022-11-28T04:40:06.014Z,98.55
2022-11-28T04:41:06.014Z,98.35
2022-11-28T04:42:06.003Z,98.14
2022-11-28T04:43:05.983Z,98.14
2022-11-28T04:44:05.973Z,98.24
2022-11-28T04:45:05.977Z,98.55
2022-11-28T04:46:06.041Z,98.76
2022-11-28T04:47:05.954Z,98.86
2022-11-28T04:48:05.944Z,98.76
2022-11-28T04:49:05.924Z,98.45
2022-11-28T04:50:05.912Z,97.93
2022-11-28T04:51:05.902Z,98.03
2022-11-28T04:52:05.896Z,98.45
2022-11-28T04:53:05.888Z,98.66
2022-11-28T04:54:05.872Z,98.45
2022-11-28T04:55:05.876Z,98.41
2022-11-28T04:56:05.840Z,98.45
2022-11-28T04:57:05.845Z,98.41
2022-11-28T04:58:05.828Z,98.10
2022-11-28T04:59:05.826Z,97.93
2022-11-28T05:00:05.806Z,97.16
2022-11-28T05:01:05.815Z,97.27
2022-11-28T05:02:05.844Z,97.27
2022-11-28T05:03:05.786Z,96.64
2022-11-28T05:04:05.757Z,96.64
2022-11-28T05:05:05.769Z,96.54
2022-11-28T05:06:05.747Z,96.37
2022-11-28T05:07:05.737Z,95.92
2022-11-28T05:08:05.718Z,95.09
2022-11-28T05:09:05.909Z,95.50
2022-11-28T05:10:05.698Z,96.23
2022-11-28T05:11:05.698Z,97.06
2022-11-28T05:12:05.671Z,97.37
2022-11-28T05:13:05.677Z,97.78
2022-11-28T05:14:05.666Z,97.78
2022-11-28T05:15:05.660Z,97.27
2022-11-28T05:16:05.675Z,96.23
2022-11-28T05:17:05.638Z,95.71
2022-11-28T05:18:05.720Z,94.26
2022-11-28T05:19:05.610Z,95.04
2022-11-28T05:20:05.610Z,95.67
2022-11-28T05:21:05.592Z,94.32
2022-11-28T05:22:05.584Z,94.73
2022-11-28T05:23:05.580Z,94.94
2022-11-28T05:24:05.553Z,93.54
2022-11-28T05:25:05.552Z,91.78
2022-11-28T05:26:05.532Z,91.99
2022-11-28T05:27:05.592Z,91.16
2022-11-28T05:28:05.502Z,91.78
2022-11-28T05:29:05.512Z,91.58
2022-11-28T05:30:05.492Z,91.37
2022-11-28T05:31:05.540Z,90.12
2022-11-28T05:32:05.539Z,90.19
2022-11-28T05:33:05.472Z,89.98
2022-11-28T05:34:05.447Z,88.94
2022-11-28T05:35:05.445Z,89.04
2022-11-28T05:36:09.920Z,89.46
2022-11-28T05:37:06.434Z,90.39
2022-11-28T05:38:09.328Z,90.29
2022-11-28T05:39:06.413Z,89.56
2022-11-28T05:40:05.398Z,90.50
2022-11-28T05:41:05.375Z,90.08
2022-11-28T05:42:05.376Z,90.50
2022-11-28T05:43:05.355Z,89.36
2022-11-28T05:44:05.362Z,89.15
2022-11-28T05:45:05.336Z,88.94
2022-11-28T05:46:05.345Z,88.32
2022-11-28T05:47:05.312Z,89.36
2022-11-28T05:48:05.306Z,89.77
2022-11-28T05:49:05.294Z,89.87
2022-11-28T05:50:05.286Z,89.00
2022-11-28T05:51:05.276Z,88.59
2022-11-28T05:52:05.277Z,88.69
2022-11-28T05:53:05.253Z,89.21
2022-11-28T05:54:05.258Z,89.31
2022-11-28T05:55:05.237Z,89.98
2022-11-28T05:56:05.237Z,91.02
2022-11-28T05:57:05.209Z,91.64
2022-11-28T05:58:05.227Z,91.53
2022-11-28T05:59:05.178Z,91.33
2022-11-28T06:00:05.188Z,92.05
2022-11-28T06:01:05.193Z,91.74
2022-11-28T06:02:05.252Z,91.53
2022-11-28T06:03:05.149Z,92.05
2022-11-28T06:04:05.217Z,92.68
2022-11-28T06:05:27.193Z,93.54
2022-11-28T06:06:06.129Z,93.85
2022-11-28T06:07:05.103Z,93.85
2022-11-28T06:08:05.162Z,93.96
2022-11-28T06:09:05.080Z,94.17
2022-11-28T06:10:05.090Z,94.68
2022-11-28T06:11:05.061Z,94.89
2022-11-28T06:12:05.160Z,95.25
2022-11-28T06:13:05.052Z,96.08
2022-11-28T06:14:05.039Z,96.08
2022-11-28T06:15:05.020Z,95.98
2022-11-28T06:16:05.067Z,95.98
2022-11-28T06:17:04.998Z,96.29
2022-11-28T06:18:05.114Z,97.02
2022-11-28T06:19:04.990Z,97.02
2022-11-28T06:20:04.982Z,96.70
2022-11-28T06:21:04.991Z,96.64
2022-11-28T06:22:04.957Z,96.75
2022-11-28T06:23:04.932Z,96.85
2022-11-28T06:24:04.941Z,97.06
2022-11-28T06:25:04.931Z,97.58
2022-11-28T06:26:04.918Z,97.89
2022-11-28T06:27:04.894Z,98.72
2022-11-28T06:28:04.884Z,98.82
2022-11-28T06:29:04.883Z,98.72
2022-11-28T06:30:04.883Z,98.82
2022-11-28T06:31:04.854Z,99.13
2022-11-28T06:32:04.918Z,99.13
2022-11-28T06:33:04.833Z,99.18
2022-11-28T06:34:04.827Z,99.49
2022-11-28T06:35:04.805Z,99.70
2022-11-28T06:36:04.824Z,99.80
2022-11-28T06:37:04.797Z,99.99
2022-11-28T06:38:04.785Z,99.99
2022-11-28T06:39:04.767Z,99.99
2022-11-28T06:40:04.779Z,99.99
2022-11-28T06:41:04.746Z,99.99
2022-11-28T06:42:04.747Z,99.99
2022-11-28T06:43:04.736Z,99.99
2022-11-28T06:44:04.737Z,99.99
2022-11-28T06:45:04.708Z,99.99
2022-11-28T06:46:04.803Z,99.99
2022-11-28T06:47:04.686Z,99.99
2022-11-28T06:48:04.677Z,99.99
2022-11-28T06:49:04.695Z,99.99
2022-11-28T06:50:04.658Z,99.99
2022-11-28T06:51:04.638Z,99.99
2022-11-28T06:52:04.644Z,99.99
2022-11-28T06:53:04.618Z,99.99
2022-11-28T06:54:04.619Z,99.99
2022-11-28T06:55:04.600Z,99.99
2022-11-28T06:56:04.598Z,99.99
2022-11-28T06:57:04.579Z,99.99
2022-11-28T06:58:04.602Z,99.99
2022-11-28T06:59:04.559Z,99.99
2022-11-28T07:00:04.570Z,99.99
2022-11-28T07:01:04.593Z,99.99
2022-11-28T07:02:07.827Z,99.99
2022-11-28T07:03:04.519Z,99.99
2022-11-28T07:04:04.510Z,99.99
2022-11-28T07:05:04.582Z,99.99
2022-11-28T07:06:04.491Z,99.99
2022-11-28T07:07:04.480Z,99.99
2022-11-28T07:08:04.563Z,99.99
2022-11-28T07:09:04.460Z,99.99
2022-11-28T07:10:04.457Z,99.99
2022-11-28T07:11:04.441Z,99.99
2022-11-28T07:12:04.431Z,99.99
2022-11-28T07:13:05.689Z,99.99
2022-11-28T07:14:04.432Z,99.99
2022-11-28T07:15:04.393Z,99.99
2022-11-28T07:16:04.396Z,99.99
2022-11-28T07:17:04.370Z,99.99
2022-11-28T07:18:04.383Z,99.99
2022-11-28T07:19:04.355Z,99.99
2022-11-28T07:20:04.353Z,99.99
2022-11-28T07:21:04.334Z,99.99
2022-11-28T07:22:04.340Z,99.96
2022-11-28T07:23:04.314Z,99.91
2022-11-28T07:24:04.324Z,98.93
2022-11-28T07:25:04.292Z,98.41
2022-11-28T07:26:04.285Z,98.51
2022-11-28T07:27:04.284Z,98.61
2022-11-28T07:28:04.273Z,98.51
2022-11-28T07:29:04.246Z,98.41
2022-11-28T07:30:04.246Z,98.20
2022-11-28T07:31:04.265Z,97.78
2022-11-28T07:32:04.321Z,97.06
2022-11-28T07:33:04.207Z,95.56
2022-11-28T07:34:04.209Z,93.28
2022-11-28T07:35:04.187Z,93.75
2022-11-28T07:36:04.180Z,94.27
2022-11-28T07:37:04.168Z,94.27
2022-11-28T07:38:04.158Z,94.06
2022-11-28T07:39:04.138Z,94.06
2022-11-28T07:40:04.144Z,93.75
2022-11-28T07:41:04.138Z,93.13
2022-11-28T07:42:04.118Z,94.37
2022-11-28T07:43:04.106Z,94.17
2022-11-28T07:44:04.105Z,94.06
2022-11-28T07:45:04.126Z,92.88
2022-11-28T07:46:04.116Z,91.22
2022-11-28T07:47:04.140Z,90.81
2022-11-28T07:48:04.060Z,90.81
2022-11-28T07:49:04.041Z,91.53
2022-11-28T07:50:04.030Z,91.64
2022-11-28T07:51:04.029Z,92.22
2022-11-28T07:52:04.012Z,93.56
2022-11-28T07:53:07.201Z,92.11
2022-11-28T07:54:04.003Z,91.60
2022-11-28T07:55:03.991Z,92.11
2022-11-28T07:56:03.969Z,92.01
2022-11-28T07:57:12.499Z,93.25
2022-11-28T07:58:04.951Z,93.35
2022-11-28T07:59:03.929Z,93.15
2022-11-28T08:00:03.950Z,92.74
2022-11-28T08:01:03.912Z,92.94
2022-11-28T08:02:03.971Z,92.84
2022-11-28T08:03:03.911Z,92.63
2022-11-28T08:04:03.970Z,92.69
2022-11-28T08:05:03.906Z,92.59
2022-11-28T08:06:03.873Z,94.04
2022-11-28T08:07:03.854Z,94.24
2022-11-28T08:08:03.906Z,94.76
2022-11-28T08:09:03.844Z,95.07
2022-11-28T08:10:03.824Z,94.35
2022-11-28T08:11:03.803Z,94.35
2022-11-28T08:12:03.806Z,94.04
2022-11-28T08:13:03.786Z,93.62
2022-11-28T08:14:03.786Z,93.48
2022-11-28T08:15:03.952Z,93.68
2022-11-28T08:16:03.763Z,92.85
2022-11-28T08:17:03.806Z,92.24
2022-11-28T08:18:03.734Z,92.13
2022-11-28T08:19:04.347Z,92.13
2022-11-28T08:20:03.716Z,92.61
2022-11-28T08:21:03.706Z,91.88
2022-11-28T08:22:03.696Z,91.26
2022-11-28T08:23:03.678Z,91.26
2022-11-28T08:24:03.681Z,91.88
2022-11-28T08:25:03.660Z,91.63
2022-11-28T08:26:03.658Z,91.63
2022-11-28T08:27:03.815Z,91.63
2022-11-28T08:28:03.653Z,91.11
2022-11-28T08:29:03.638Z,90.35
2022-11-28T08:30:03.649Z,89.42
2022-11-28T08:31:03.602Z,88.49
2022-11-28T08:32:03.598Z,87.35
2022-11-28T08:33:04.371Z,88.55
2022-11-28T08:34:03.843Z,88.76
2022-11-28T08:35:03.562Z,85.66
2022-11-28T08:36:03.556Z,85.24
2022-11-28T08:37:03.524Z,86.07
2022-11-28T08:38:03.545Z,86.44
2022-11-28T08:39:22.873Z,86.13
2022-11-28T08:40:04.509Z,87.17
2022-11-28T08:41:03.497Z,86.86
2022-11-28T08:42:03.496Z,86.96
2022-11-28T08:43:03.480Z,85.83
2022-11-28T08:44:03.493Z,85.10
2022-11-28T08:45:03.442Z,85.93
2022-11-28T08:46:03.504Z,85.78
2022-11-28T08:47:03.427Z,85.78
2022-11-28T08:48:03.412Z,86.20
2022-11-28T08:49:04.751Z,85.99
2022-11-28T08:50:03.405Z,84.75
2022-11-28T08:51:03.392Z,84.55
2022-11-28T08:52:03.373Z,84.34
2022-11-28T08:53:07.848Z,85.27
2022-11-28T08:54:03.355Z,85.99
2022-11-28T08:55:03.353Z,87.85
2022-11-28T08:56:03.324Z,87.74
2022-11-28T08:57:03.324Z,88.26
2022-11-28T08:58:03.313Z,89.29
2022-11-28T08:59:03.322Z,88.57
2022-11-28T09:00:03.286Z,87.74
2022-11-28T09:01:03.306Z,86.30
2022-11-28T09:02:03.266Z,87.02
2022-11-28T09:03:03.256Z,86.10
2022-11-28T09:04:03.349Z,86.10
2022-11-28T09:05:03.244Z,86.61
2022-11-28T09:06:03.252Z,87.74
2022-11-28T09:07:03.206Z,88.37
2022-11-28T09:08:03.283Z,88.16
2022-11-28T09:09:03.191Z,88.26
2022-11-28T09:10:03.184Z,88.47
2022-11-28T09:11:03.158Z,89.61
2022-11-28T09:12:03.168Z,89.15
2022-11-28T09:13:03.148Z,88.89
2022-11-28T09:14:03.148Z,88.98
2022-11-28T09:15:03.109Z,89.09
2022-11-28T09:16:03.115Z,89.87
2022-11-28T09:17:03.208Z,88.74
2022-11-28T09:18:03.107Z,88.74
2022-11-28T09:19:03.079Z,88.53
2022-11-28T09:20:03.079Z,88.95
2022-11-28T09:21:03.049Z,88.53
2022-11-28T09:22:03.053Z,88.32
2022-11-28T09:23:03.030Z,87.60
2022-11-28T09:24:03.061Z,87.50
2022-11-28T09:25:03.023Z,88.43
2022-11-28T09:26:03.113Z,87.60
2022-11-28T09:27:02.990Z,86.57
2022-11-28T09:28:02.992Z,86.98
2022-11-28T09:29:02.962Z,86.43
2022-11-28T09:30:02.962Z,87.40
2022-11-28T09:31:03.010Z,87.46
2022-11-28T09:32:02.955Z,88.80
2022-11-28T09:33:02.922Z,86.74
2022-11-28T09:34:02.934Z,88.90
2022-11-28T09:35:02.904Z,87.15
2022-11-28T09:36:02.903Z,87.98
2022-11-28T09:37:04.996Z,86.74
2022-11-28T09:38:02.883Z,86.63
2022-11-28T09:39:02.874Z,87.35
2022-11-28T09:40:13.162Z,87.93
2022-11-28T09:41:03.895Z,87.52
2022-11-28T09:42:03.634Z,88.35
2022-11-28T09:43:02.815Z,88.04
2022-11-28T09:44:02.827Z,87.52
2022-11-28T09:45:02.796Z,85.77
2022-11-28T09:46:02.880Z,85.46
2022-11-28T09:47:02.787Z,83.29
2022-11-28T09:48:02.773Z,84.22
2022-11-28T09:49:02.758Z,83.77
2022-11-28T09:50:02.757Z,84.80
2022-11-28T09:51:02.726Z,84.59
2022-11-28T09:52:02.759Z,84.29
2022-11-28T09:53:02.779Z,82.95
2022-11-28T09:54:02.709Z,82.74
2022-11-28T09:55:02.688Z,82.84
2022-11-28T09:56:02.693Z,81.88
2022-11-28T09:57:02.700Z,81.67
2022-11-28T09:58:02.661Z,81.57
2022-11-28T09:59:02.661Z,80.33
2022-11-28T10:00:02.639Z,81.26
2022-11-28T10:01:02.665Z,83.28
2022-11-28T10:02:02.617Z,82.56
2022-11-28T10:03:02.622Z,81.23
2022-11-28T10:04:02.780Z,81.02
2022-11-28T10:05:02.657Z,81.02
2022-11-28T10:06:02.592Z,80.81
2022-11-28T10:07:02.569Z,79.79
2022-11-28T10:08:02.625Z,76.70
2022-11-28T10:09:02.553Z,80.30
2022-11-28T10:10:02.531Z,82.11
2022-11-28T10:11:02.531Z,83.25
2022-11-28T10:12:02.510Z,78.92
2022-11-28T10:13:02.519Z,79.54
2022-11-28T10:14:09.698Z,78.82
2022-11-28T10:15:03.495Z,74.91
2022-11-28T10:16:02.482Z,75.52
2022-11-28T10:17:02.578Z,78.10
2022-11-28T10:18:02.451Z,78.47
2022-11-28T10:19:02.455Z,78.99
2022-11-28T10:20:02.613Z,77.45
2022-11-28T10:21:02.424Z,77.20
2022-11-28T10:22:02.407Z,75.67
2022-11-28T10:23:02.406Z,78.64
2022-11-28T10:24:02.391Z,76.28
2022-11-28T10:25:02.498Z,76.48
2022-11-28T10:26:02.362Z,74.84
2022-11-28T10:27:02.368Z,75.56
2022-11-28T10:28:02.335Z,72.27
2022-11-28T10:29:02.347Z,74.22
2022-11-28T10:30:02.330Z,74.50
2022-11-28T10:31:02.414Z,75.93
2022-11-28T10:32:02.303Z,75.01
2022-11-28T10:33:02.298Z,74.50
2022-11-28T10:34:02.278Z,75.01
2022-11-28T10:35:02.288Z,73.64
2022-11-28T10:36:02.260Z,73.74
2022-11-28T10:37:02.287Z,70.46
2022-11-28T10:38:02.236Z,72.61
2022-11-28T10:39:02.238Z,70.87
2022-11-28T10:40:02.228Z,71.97
2022-11-28T10:41:02.218Z,73.30
2022-11-28T10:42:02.202Z,74.40
2022-11-28T10:43:02.203Z,75.11
2022-11-28T10:44:02.170Z,74.70
2022-11-28T10:45:02.171Z,71.62
2022-11-28T10:46:02.206Z,71.31
2022-11-28T10:47:02.173Z,72.34
2022-11-28T10:48:29.601Z,71.39
2022-11-28T10:49:03.130Z,69.95
2022-11-28T10:50:02.113Z,67.79
2022-11-28T10:51:02.102Z,67.69
2022-11-28T10:52:02.173Z,68.17
2022-11-28T10:53:02.091Z,64.89
2022-11-28T10:54:02.073Z,68.17
2022-11-28T10:55:02.745Z,68.35
2022-11-28T10:56:02.049Z,70.91
2022-11-28T10:57:02.334Z,70.60
2022-11-28T10:58:02.038Z,70.81
2022-11-28T10:59:02.013Z,69.65
2022-11-28T11:00:02.001Z,72.61
2022-11-28T11:01:02.036Z,68.62
2022-11-28T11:02:02.022Z,68.52
2022-11-28T11:03:01.984Z,65.01
2022-11-28T11:04:01.955Z,65.01
2022-11-28T11:05:02.030Z,67.23
2022-11-28T11:06:01.935Z,66.00
2022-11-28T11:07:09.063Z,67.10
2022-11-28T11:08:03.791Z,65.05
2022-11-28T11:09:01.917Z,65.73
2022-11-28T11:10:01.902Z,65.43
2022-11-28T11:11:01.886Z,64.30
2022-11-28T11:12:01.881Z,65.22
2022-11-28T11:13:01.869Z,67.34
2022-11-28T11:14:01.847Z,65.50
2022-11-28T11:15:01.855Z,65.26
2022-11-28T11:16:01.855Z,65.06
2022-11-28T11:17:01.830Z,63.73
2022-11-28T11:18:01.799Z,63.93
2022-11-28T11:19:01.816Z,66.25
2022-11-28T11:20:01.787Z,67.27
2022-11-28T11:21:01.790Z,69.18
2022-11-28T11:22:01.778Z,66.02
2022-11-28T11:23:01.760Z,65.92
2022-11-28T11:24:01.747Z,64.18
2022-11-28T11:25:01.741Z,65.81
2022-11-28T11:26:01.720Z,64.87
2022-11-28T11:27:01.722Z,66.80
2022-11-28T11:28:01.718Z,68.44
2022-11-28T11:29:01.701Z,67.21
2022-11-28T11:30:01.697Z,70.37
2022-11-28T11:31:01.726Z,68.64
2022-11-28T11:32:01.673Z,68.03
2022-11-28T11:33:01.653Z,68.67
2022-11-28T11:34:01.653Z,67.04
2022-11-28T11:35:01.657Z,66.02
2022-11-28T11:36:01.751Z,66.33
2022-11-28T11:37:01.626Z,65.92
2022-11-28T11:38:01.604Z,66.02
2022-11-28T11:39:01.595Z,65.41
2022-11-28T11:40:01.567Z,65.68
2022-11-28T11:41:01.575Z,67.21
2022-11-28T11:42:01.546Z,66.09
2022-11-28T11:43:01.555Z,65.17
2022-11-28T11:44:01.537Z,65.86
2022-11-28T11:45:02.198Z,66.77
2022-11-28T11:46:01.553Z,66.77
2022-11-28T11:47:01.516Z,66.77
2022-11-28T11:48:01.528Z,67.38
2022-11-28T11:49:01.505Z,65.99
2022-11-28T11:50:01.542Z,66.80
2022-11-28T11:51:01.459Z,67.49
2022-11-28T11:52:01.441Z,66.50
2022-11-28T11:53:01.451Z,67.32
2022-11-28T11:54:01.700Z,67.11
2022-11-28T11:55:01.418Z,68.06
2022-11-28T11:56:01.432Z,68.19
2022-11-28T11:57:30.655Z,67.61
2022-11-28T11:58:05.698Z,68.63
2022-11-28T11:59:01.380Z,68.23
2022-11-28T12:00:01.547Z,68.12
2022-11-28T12:01:01.354Z,68.33
2022-11-28T12:02:01.342Z,67.92
2022-11-28T12:03:01.447Z,67.71
2022-11-28T12:04:08.512Z,68.53
2022-11-28T12:05:02.459Z,66.39
2022-11-28T12:06:16.599Z,66.28
2022-11-28T12:07:02.302Z,66.80
2022-11-28T12:08:01.400Z,67.82
2022-11-28T12:09:01.279Z,68.43
2022-11-28T12:11:02.255Z,68.12
2022-11-28T12:12:01.234Z,69.56
2022-11-28T12:13:01.264Z,67.82
2022-11-28T12:14:01.217Z,65.57
2022-11-28T12:15:01.217Z,64.65
2022-11-28T12:16:01.253Z,62.23
2022-11-28T12:17:07.542Z,62.95
2022-11-28T12:18:02.168Z,65.47
2022-11-28T12:19:01.158Z,64.27
2022-11-28T12:20:01.142Z,63.35
2022-11-28T12:21:01.243Z,63.35
2022-11-28T12:22:01.119Z,65.91
2022-11-28T12:23:01.121Z,65.70
2022-11-28T12:24:01.129Z,64.58
2022-11-28T12:25:01.921Z,66.01
2022-11-28T12:26:01.892Z,61.61
2022-11-28T12:27:01.070Z,67.34
2022-11-28T12:28:01.053Z,61.72
2022-11-28T12:29:01.068Z,62.95
2022-11-28T12:30:01.033Z,61.00
2022-11-28T12:31:01.082Z,62.13
2022-11-28T12:32:01.019Z,60.39
2022-11-28T12:33:01.012Z,60.08
2022-11-28T12:34:01.003Z,63.04
2022-11-28T12:35:01.011Z,61.61
2022-11-28T12:36:03.309Z,63.02
2022-11-28T12:37:00.965Z,67.71
2022-11-28T12:38:16.331Z,65.88
2022-11-28T12:39:01.944Z,64.48
2022-11-28T12:40:00.932Z,63.35
2022-11-28T12:41:00.929Z,61.31
2022-11-28T12:42:00.905Z,63.04
2022-11-28T12:43:00.902Z,61.51
2022-11-28T12:44:00.988Z,62.74
2022-11-28T12:45:00.886Z,61.51
2022-11-28T12:46:00.922Z,62.63
2022-11-28T12:47:00.857Z,63.45
2022-11-28T12:48:00.849Z,62.13
2022-11-28T12:49:00.837Z,60.60
2022-11-28T12:50:00.835Z,65.60
2022-11-28T12:51:00.841Z,64.17
2022-11-28T12:52:00.797Z,64.17
2022-11-28T12:53:00.802Z,64.07